Time;durP1;ratioP1;P1;durP2;ratioP2;P2;SDS_P1;SDS_P2;PMS_P1;PMS_P2;Temp;Humidity;BMP_temperature;BMP_pressure;BME280_temperature;BME280_humidity;BME280_pressure;Samples;Min_cycle;Max_cycle;Signal;HPM_P1;HPM_P2
2022/03/27 00:02:12;;;;;;;9.85;4.28;;;5.70;99.90;;;;;;5092533;28;20676;-49
2022/03/27 00:04:38;;;;;;;10.52;4.38;;;;;;;;;;5090875;28;20047;-49
2022/03/27 00:07:05;;;;;;;14.98;4.68;;;5.80;99.90;;;;;;5090684;28;20528;-47
2022/03/27 00:09:31;;;;;;;10.27;4.63;;;5.70;99.90;;;;;;5092072;28;20035;-46
2022/03/27 00:11:56;;;;;;;11.02;4.88;;;5.80;99.90;;;;;;5093250;28;20436;-49
2022/03/27 00:14:23;;;;;;;11.30;4.57;;;;;;;;;;5093863;28;20070;-45
2022/03/27 00:16:49;;;;;;;13.25;4.50;;;;;;;;;;5093073;28;20043;-48
2022/03/27 00:19:15;;;;;;;13.80;5.45;;;;;;;;;;5092537;28;20054;-45
2022/03/27 00:21:45;;;;;;;11.02;5.43;;;5.90;99.90;;;;;;5093716;28;20043;-47
2022/03/27 00:24:12;;;;;;;12.98;5.22;;;5.70;99.90;;;;;;5091241;28;20092;-46
2022/03/27 00:26:39;;;;;;;12.10;5.40;;;;;;;;;;5091909;28;20050;-48
2022/03/27 00:29:04;;;;;;;13.50;4.97;;;5.80;99.90;;;;;;5073872;28;20805;-50
2022/03/27 00:31:35;;;;;;;12.93;5.63;;;;;;;;;;5092815;28;20463;-48
2022/03/27 00:34:02;;;;;;;14.20;5.55;;;5.70;99.90;;;;;;5092181;28;20048;-47
2022/03/27 00:36:28;;;;;;;15.10;5.45;;;;;;;;;;5091537;28;20786;-46
2022/03/27 00:38:56;;;;;;;14.30;6.88;;;5.70;99.90;;;;;;5091483;28;20073;-46
2022/03/27 00:41:24;;;;;;;13.88;5.72;;;5.70;99.90;;;;;;5092172;28;20043;-45
2022/03/27 00:43:51;;;;;;;14.20;6.15;;;;;;;;;;5091147;28;20496;-46
2022/03/27 00:46:17;;;;;;;13.77;5.93;;;;;;;;;;5090869;28;20549;-49
2022/03/27 00:48:44;;;;;;;15.60;6.38;;;5.70;99.90;;;;;;5091017;28;20595;-46
2022/03/27 00:51:10;;;;;;;14.95;6.90;;;;;;;;;;5092113;28;20390;-49
2022/03/27 00:53:36;;;;;;;19.60;6.43;;;;;;;;;;5091384;28;20043;-46
2022/03/27 00:56:02;;;;;;;16.50;6.82;;;;;;;;;;5091065;28;20656;-46
2022/03/27 00:58:28;;;;;;;15.77;5.97;;;;;;;;;;5092694;28;20099;-48
2022/03/27 01:01:24;;;;;;;11.88;4.85;;;5.80;99.90;;;;;;5090298;28;20067;-46
2022/03/27 01:03:54;;;;;;;13.93;5.53;;;5.90;99.90;;;;;;5091056;28;20035;-49
2022/03/27 01:06:41;;;;;;;16.80;6.95;;;6.00;99.90;;;;;;5091802;28;20556;-47
2022/03/27 01:11:55;;;;;;;16.58;6.55;;;;;;;;;;5090546;28;20097;-48
2022/03/27 01:14:38;;;;;;;17.83;6.40;;;5.80;99.90;;;;;;5090556;28;20039;-48
2022/03/27 01:17:08;;;;;;;20.13;8.90;;;6.00;99.90;;;;;;5091015;28;20966;-48
2022/03/27 01:19:34;;;;;;;13.43;6.78;;;;;;;;;;5092864;28;20531;-48
2022/03/27 01:22:00;;;;;;;16.80;6.47;;;;;;;;;;5095117;28;20042;-47
2022/03/27 01:24:26;;;;;;;14.35;7.38;;;;;;;;;;5094889;28;20146;-48
2022/03/27 01:26:53;;;;;;;14.57;7.53;;;;;;;;;;5095875;28;21891;-48
2022/03/27 01:29:19;;;;;;;17.50;7.47;;;;;;;;;;5096296;28;20126;-48
2022/03/27 01:31:47;;;;;;;12.65;7.30;;;5.90;99.90;;;;;;5096068;28;20047;-46
2022/03/27 01:34:13;;;;;;;15.55;7.50;;;5.90;99.90;;;;;;5095175;28;20215;-47
2022/03/27 01:36:39;;;;;;;17.73;7.90;;;;;;;;;;5095701;28;20122;-47
2022/03/27 01:39:11;;;;;;;17.20;7.57;;;5.90;99.90;;;;;;5096731;28;20035;-49
2022/03/27 01:41:38;;;;;;;18.60;7.72;;;;;;;;;;5096820;28;20036;-49
2022/03/27 01:44:12;;;;;;;12.00;6.28;;;5.80;99.90;;;;;;5094681;28;20501;-49
2022/03/27 01:46:40;;;;;;;14.52;7.00;;;6.00;99.90;;;;;;5095459;28;20144;-50
2022/03/27 01:49:08;;;;;;;14.82;7.18;;;6.50;99.90;;;;;;5076976;28;20063;-49
2022/03/27 01:51:34;;;;;;;13.90;6.60;;;5.80;99.90;;;;;;5096552;28;20044;-49
2022/03/27 01:54:01;;;;;;;13.32;6.70;;;;;;;;;;5094583;28;20353;-53
2022/03/27 01:56:27;;;;;;;14.90;6.28;;;5.90;99.90;;;;;;5094514;28;20040;-47
2022/03/27 01:58:55;;;;;;;18.23;7.70;;;5.70;99.90;;;;;;5094561;28;20040;-47
2022/03/27 02:01:21;;;;;;;14.80;6.53;;;;;;;;;;5093126;28;20417;-49
2022/03/27 02:03:47;;;;;;;18.15;7.85;;;;;;;;;;5094121;28;20635;-50
2022/03/27 02:06:15;;;;;;;20.23;7.20;;;7.00;99.90;;;;;;5093741;28;20035;-49
2022/03/27 02:08:42;;;;;;;11.85;6.35;;;5.90;99.90;;;;;;5093650;28;20074;-45
2022/03/27 02:11:09;;;;;;;10.75;6.72;;;;;;;;;;5093345;28;20401;-47
2022/03/27 02:13:35;;;;;;;19.58;7.97;;;;;;;;;;5093061;28;20051;-47
2022/03/27 02:16:03;;;;;;;15.90;7.40;;;;;;;;;;5093056;28;20130;-48
2022/03/27 02:18:29;;;;;;;18.95;7.57;;;;;;;;;;5094883;28;20039;-49
2022/03/27 02:21:00;;;;;;;14.60;7.18;;;5.80;99.90;;;;;;5094259;28;20032;-49
2022/03/27 02:23:26;;;;;;;16.30;6.78;;;;;;;;;;5093240;28;20047;-48
2022/03/27 02:25:53;;;;;;;16.45;7.35;;;5.80;99.90;;;;;;5093577;28;20035;-51
2022/03/27 02:28:21;;;;;;;12.70;6.88;;;5.80;99.90;;;;;;5093294;28;20047;-51
2022/03/27 02:30:47;;;;;;;14.65;7.15;;;5.80;99.90;;;;;;5093563;28;20314;-50
2022/03/27 02:33:13;;;;;;;16.42;6.75;;;;;;;;;;5093611;28;20090;-49
2022/03/27 02:35:39;;;;;;;18.45;7.93;;;;;;;;;;5093746;28;20112;-51
2022/03/27 02:38:07;;;;;;;21.58;7.38;;;5.80;99.90;;;;;;5093081;28;20743;-50
2022/03/27 02:40:38;;;;;;;13.73;6.50;;;5.80;99.90;;;;;;5093416;28;20100;-49
2022/03/27 02:43:04;;;;;;;15.73;5.90;;;;;;;;;;5091756;28;20626;-44
2022/03/27 02:45:32;;;;;;;17.13;7.22;;;5.80;99.90;;;;;;5093789;28;20039;-49
2022/03/27 02:47:59;;;;;;;13.15;6.05;;;3.80;99.90;;;;;;5092193;28;20031;-50
2022/03/27 02:50:26;;;;;;;12.90;5.95;;;5.80;99.90;;;;;;5073697;28;20613;-50
2022/03/27 02:52:53;;;;;;;12.35;5.63;;;5.70;99.90;;;;;;5094307;28;20046;-50
2022/03/27 02:55:20;;;;;;;10.55;5.97;;;5.50;99.90;;;;;;5093867;28;20535;-50
2022/03/27 02:57:46;;;;;;;16.80;6.43;;;;;;;;;;5093999;28;20058;-47
2022/03/27 03:00:13;;;;;;;15.35;6.00;;;;;;;;;;5093150;28;20123;-49
2022/03/27 03:02:39;;;;;;;12.88;6.35;;;;;;;;;;5093708;28;21079;-49
2022/03/27 03:05:05;;;;;;;14.73;5.65;;;;;;;;;;5094320;28;20516;-50
2022/03/27 03:07:33;;;;;;;12.77;5.45;;;5.00;99.90;;;;;;5094053;28;20047;-50
2022/03/27 03:10:02;;;;;;;12.30;5.78;;;4.90;99.90;;;;;;5093292;28;20046;-49
2022/03/27 03:12:28;;;;;;;11.15;5.53;;;;;;;;;;5092950;28;20094;-51
2022/03/27 03:14:56;;;;;;;12.43;6.32;;;;;;;;;;5093711;28;20575;-47
2022/03/27 03:17:25;;;;;;;11.13;5.20;;;4.60;99.90;;;;;;5092241;28;20043;-46
2022/03/27 03:19:53;;;;;;;11.65;6.50;;;4.60;99.90;;;;;;5093283;28;20039;-46
2022/03/27 03:22:19;;;;;;;15.32;5.50;;;4.60;99.90;;;;;;5092497;28;20038;-49
2022/03/27 03:24:46;;;;;;;14.05;5.30;;;4.40;99.90;;;;;;5073770;28;20059;-47
2022/03/27 03:27:14;;;;;;;14.75;5.97;;;5.80;99.90;;;;;;5091873;28;20039;-48
2022/03/27 03:29:40;;;;;;;12.50;5.35;;;;;;;;;;5092154;28;20032;-49
2022/03/27 03:32:06;;;;;;;14.05;5.88;;;;;;;;;;5093282;28;20043;-48
2022/03/27 03:34:34;;;;;;;10.65;5.63;;;4.00;99.90;;;;;;5092183;28;20040;-47
2022/03/27 03:37:00;;;;;;;14.90;5.80;;;;;;;;;;5072362;28;20299;-49
2022/03/27 03:39:26;;;;;;;12.02;6.32;;;;;;;;;;5092693;28;20039;-45
2022/03/27 03:41:54;;;;;;;14.45;5.30;;;3.70;99.90;;;;;;5092106;28;20048;-51
2022/03/27 03:44:20;;;;;;;11.45;5.10;;;;;;;;;;5092052;28;20039;-48
2022/03/27 03:46:46;;;;;;;12.82;6.20;;;;;;;;;;5090937;28;20073;-45
2022/03/27 03:49:14;;;;;;;10.82;5.55;;;3.60;99.90;;;;;;5091922;28;20035;-50
2022/03/27 03:51:40;;;;;;;8.30;4.88;;;;;;;;;;5093294;28;20059;-49
2022/03/27 03:54:07;;;;;;;13.75;5.82;;;;;;;;;;5091500;28;20046;-46
2022/03/27 03:56:33;;;;;;;12.13;4.72;;;;;;;;;;5091421;28;20138;-45
2022/03/27 03:59:00;;;;;;;9.30;4.82;;;;;;;;;;5092111;28;20038;-49
2022/03/27 04:01:26;;;;;;;10.05;5.20;;;;;;;;;;5092274;28;20139;-48
2022/03/27 04:03:54;;;;;;;10.73;5.35;;;3.50;99.90;;;;;;5091753;28;20039;-50
2022/03/27 04:06:20;;;;;;;14.55;5.38;;;;;;;;;;5090323;28;20187;-50
2022/03/27 04:08:46;;;;;;;6.80;4.50;;;;;;;;;;5072489;28;20038;-47
2022/03/27 04:11:17;;;;;;;8.75;4.25;;;;;;;;;;5066740;28;20051;-45
2022/03/27 04:13:46;;;;;;;35.60;4.22;;;3.20;99.90;;;;;;5092989;28;20055;-50
2022/03/27 04:16:13;;;;;;;15.80;5.80;;;3.30;99.90;;;;;;5092193;28;20072;-49
2022/03/27 04:18:39;;;;;;;11.48;4.47;;;;;;;;;;5073440;28;20048;-51
2022/03/27 04:21:05;;;;;;;14.27;4.05;;;;;;;;;;5092817;28;20623;-51
2022/03/27 04:23:31;;;;;;;7.82;3.97;;;;;;;;;;5093591;28;20035;-45
2022/03/27 04:25:57;;;;;;;18.25;3.80;;;;;;;;;;5092486;28;20146;-44
2022/03/27 04:28:26;;;;;;;13.00;4.10;;;3.10;99.90;;;;;;5092064;28;20090;-48
2022/03/27 04:30:52;;;;;;;37.78;5.13;;;;;;;;;;5093223;28;20050;-47
2022/03/27 04:33:18;;;;;;;20.63;4.80;;;;;;;;;;5091365;28;20047;-49
2022/03/27 04:35:45;;;;;;;39.65;4.90;;;;;;;;;;5091286;28;20039;-48
2022/03/27 04:38:11;;;;;;;6.95;3.90;;;;;;;;;;5073842;28;20048;-44
2022/03/27 04:40:37;;;;;;;15.38;3.97;;;;;;;;;;5092636;28;20281;-46
2022/03/27 04:43:05;;;;;;;33.47;4.05;;;;;;;;;;5092689;28;20039;-48
2022/03/27 04:45:31;;;;;;;26.42;4.43;;;;;;;;;;5092540;28;20051;-44
2022/03/27 04:47:57;;;;;;;9.25;3.60;;;;;;;;;;5092615;28;20622;-46
2022/03/27 04:50:27;;;;;;;13.55;3.70;;;2.80;99.90;;;;;;5092296;28;20154;-46
2022/03/27 04:52:53;;;;;;;20.58;4.07;;;;;;;;;;5093812;28;20039;-50
2022/03/27 04:55:19;;;;;;;38.92;4.57;;;;;;;;;;5092369;28;20112;-49
2022/03/27 04:57:45;;;;;;;25.15;5.97;;;;;;;;;;5091660;28;20622;-48
2022/03/27 05:00:14;;;;;;;40.35;4.93;;;2.60;99.90;;;;;;5092463;28;20071;-49
2022/03/27 05:02:41;;;;;;;29.13;5.18;;;2.80;99.90;;;;;;5091571;28;20571;-47
2022/03/27 05:05:10;;;;;;;63.90;5.53;;;2.80;99.90;;;;;;5090838;28;20035;-46
2022/03/27 05:07:37;;;;;;;98.22;6.13;;;2.50;99.90;;;;;;5090956;28;20032;-47
2022/03/27 05:10:05;;;;;;;70.88;5.95;;;2.80;99.90;;;;;;5090689;28;20044;-49
2022/03/27 05:12:32;;;;;;;67.55;5.43;;;;;;;;;;5091694;28;20595;-48
2022/03/27 05:14:58;;;;;;;34.25;3.60;;;;;;;;;;5091502;28;20150;-48
2022/03/27 05:17:24;;;;;;;97.18;5.93;;;;;;;;;;5090859;28;20047;-47
2022/03/27 05:19:50;;;;;;;80.28;5.35;;;;;;;;;;5091569;28;20132;-43
2022/03/27 05:22:16;;;;;;;26.48;4.40;;;;;;;;;;5092244;28;20047;-49
2022/03/27 05:24:42;;;;;;;23.20;4.13;;;;;;;;;;5090956;28;20238;-47
2022/03/27 05:27:09;;;;;;;32.17;4.40;;;;;;;;;;5089694;28;20088;-48
2022/03/27 05:29:35;;;;;;;53.40;4.70;;;;;;;;;;5089335;28;20554;-46
2022/03/27 05:32:04;;;;;;;11.30;4.30;;;2.40;99.90;;;;;;5091081;28;20047;-47
2022/03/27 05:34:30;;;;;;;10.23;3.90;;;;;;;;;;5090815;28;20044;-49
2022/03/27 05:36:56;;;;;;;37.47;4.18;;;;;;;;;;5088887;28;20039;-48
2022/03/27 05:39:23;;;;;;;31.70;3.47;;;2.30;99.90;;;;;;5090508;28;20036;-47
2022/03/27 05:41:49;;;;;;;36.88;3.53;;;;;;;;;;5090770;28;20063;-46
2022/03/27 05:44:15;;;;;;;28.80;3.75;;;;;;;;;;5088626;28;20062;-45
2022/03/27 05:46:41;;;;;;;9.90;3.17;;;;;;;;;;5089009;28;20403;-45
2022/03/27 05:49:09;;;;;;;15.32;3.13;;;2.40;99.90;;;;;;5089457;28;20032;-49
2022/03/27 05:51:35;;;;;;;25.05;3.75;;;;;;;;;;5071824;28;20415;-46
2022/03/27 05:54:01;;;;;;;57.97;4.75;;;;;;;;;;5090047;28;20030;-47
2022/03/27 05:56:30;;;;;;;37.85;5.05;;;2.80;99.90;;;;;;5071061;28;20047;-47
2022/03/27 05:58:56;;;;;;;35.22;3.42;;;;;;;;;;5090613;28;20379;-49
2022/03/27 06:01:22;;;;;;;47.90;4.13;;;;;;;;;;5091962;28;20517;-48
2022/03/27 06:03:50;;;;;;;45.72;3.42;;;3.10;99.90;;;;;;5090647;28;20060;-47
2022/03/27 06:06:16;;;;;;;10.27;3.15;;;;;;;;;;5091894;28;20031;-52
2022/03/27 06:08:42;;;;;;;11.25;2.88;;;;;;;;;;5075125;28;20047;-51
2022/03/27 06:11:09;;;;;;;19.42;2.97;;;2.90;99.90;;;;;;5095288;28;20051;-52
2022/03/27 06:13:35;;;;;;;9.10;2.97;;;;;;;;;;5094199;28;20077;-53
2022/03/27 06:16:01;;;;;;;26.83;3.38;;;;;;;;;;5094585;28;20058;-48
2022/03/27 06:18:29;;;;;;;7.63;3.25;;;4.70;99.90;;;;;;5093792;28;20178;-46
2022/03/27 06:20:54;;;;;;;12.13;3.20;;;5.40;99.90;;;;;;5109958;27;20040;-44
2022/03/27 06:23:20;;;;;;;9.10;2.97;;;5.60;99.90;;;;;;5094725;28;20046;-50
2022/03/27 06:25:48;;;;;;;4.63;2.42;;;6.30;99.90;;;;;;5094363;28;20407;-47
2022/03/27 06:28:13;;;;;;;10.05;3.30;;;7.20;99.90;;;;;;5094002;28;20043;-45
2022/03/27 06:30:40;;;;;;;3.65;2.10;;;7.90;99.90;;;;;;5092363;28;20108;-46
2022/03/27 06:33:08;;;;;;;4.32;1.73;;;8.70;99.90;;;;;;5092037;28;20544;-56
2022/03/27 06:35:34;;;;;;;4.18;1.80;;;9.10;99.90;;;;;;5092355;28;20488;-49
2022/03/27 06:37:59;;;;;;;5.47;1.70;;;9.50;99.90;;;;;;5074454;28;20034;-50
2022/03/27 06:40:27;;;;;;;10.80;3.88;;;10.20;99.90;;;;;;5092639;28;20036;-50
2022/03/27 06:42:53;;;;;;;10.88;4.90;;;10.70;99.90;;;;;;5092903;28;20105;-53
2022/03/27 06:45:20;;;;;;;9.60;2.30;;;11.10;99.90;;;;;;5093024;28;20036;-53
2022/03/27 06:47:49;;;;;;;13.55;3.28;;;11.80;99.90;;;;;;5091303;28;20617;-53
2022/03/27 06:50:17;;;;;;;14.73;3.28;;;12.20;99.90;;;;;;5092289;28;20404;-54
2022/03/27 06:52:44;;;;;;;15.00;3.90;;;12.90;99.90;;;;;;5092715;28;20034;-54
2022/03/27 06:55:12;;;;;;;18.27;4.93;;;14.00;99.90;;;;;;5091836;28;20043;-55
2022/03/27 06:57:38;;;;;;;21.58;5.32;;;13.10;99.90;;;;;;5093840;28;20039;-54
2022/03/27 07:03:03;;;;;;;23.67;5.45;;;14.10;99.90;;;;;;5092913;28;20051;-54
2022/03/27 07:05:35;;;;;;;29.05;6.15;;;15.10;99.90;;;;;;5091460;28;20694;-53
2022/03/27 07:08:04;;;;;;;30.80;7.10;;;15.10;99.90;;;;;;5092316;28;20039;-54
2022/03/27 07:10:30;;;;;;;23.55;5.53;;;15.30;99.90;;;;;;5092480;28;20042;-53
2022/03/27 07:12:56;;;;;;;26.65;5.50;;;14.80;99.90;;;;;;5092717;28;20055;-53
2022/03/27 07:15:25;;;;;;;26.95;6.05;;;14.30;99.90;;;;;;5093654;28;20109;-53
2022/03/27 07:17:53;;;;;;;29.75;5.78;;;15.10;99.90;;;;;;5091811;28;20895;-51
2022/03/27 07:20:25;;;;;;;31.02;6.85;;;14.00;99.90;;;;;;5092446;28;20412;-52
2022/03/27 07:22:52;;;;;;;30.08;7.63;;;13.90;99.90;;;;;;5075188;28;20048;-48
2022/03/27 07:25:19;;;;;;;26.13;6.38;;;13.80;99.90;;;;;;5090678;28;20104;-51
2022/03/27 07:27:44;;;;;;;27.98;7.15;;;14.50;99.90;;;;;;5087222;28;20111;-50
2022/03/27 07:30:11;;;;;;;25.45;6.25;;;16.40;99.90;;;;;;5090719;28;20687;-52
2022/03/27 07:32:38;;;;;;;31.20;6.68;;;15.50;99.90;;;;;;5092235;28;20043;-52
2022/03/27 07:35:04;;;;;;;26.20;5.85;;;15.90;99.90;;;;;;5092991;28;20070;-51
2022/03/27 07:37:32;;;;;;;28.85;5.85;;;15.40;99.90;;;;;;5092771;28;20043;-53
2022/03/27 07:40:00;;;;;;;27.13;5.90;;;15.20;99.90;;;;;;5094459;28;20499;-49
2022/03/27 07:42:26;;;;;;;25.58;5.43;;;17.10;99.90;;;;;;5092995;28;20118;-52
2022/03/27 07:44:52;;;;;;;27.92;5.95;;;15.10;99.90;;;;;;5092687;28;20635;-49
2022/03/27 07:47:17;;;;;;;23.10;5.20;;;15.30;99.90;;;;;;5092004;28;20047;-52
2022/03/27 07:49:43;;;;;;;25.90;5.65;;;16.50;99.90;;;;;;5092181;27;20348;-50
2022/03/27 07:52:11;;;;;;;32.35;7.57;;;15.10;99.90;;;;;;5090454;28;20454;-49
2022/03/27 07:54:37;;;;;;;31.50;6.13;;;14.60;99.90;;;;;;5091424;28;20043;-51
2022/03/27 07:57:03;;;;;;;31.05;6.78;;;14.40;99.90;;;;;;5091896;28;20040;-51
2022/03/27 07:59:31;;;;;;;30.60;6.00;;;14.70;99.90;;;;;;5091958;28;20044;-52
2022/03/27 08:01:57;;;;;;;31.42;6.90;;;15.40;99.90;;;;;;5090818;28;20159;-49
2022/03/27 08:04:23;;;;;;;36.15;7.28;;;17.60;99.90;;;;;;5091298;28;20082;-49
2022/03/27 08:06:51;;;;;;;26.02;6.03;;;16.90;99.90;;;;;;5092053;28;20504;-49
2022/03/27 08:09:16;;;;;;;25.77;6.05;;;17.70;99.90;;;;;;5072150;28;20489;-49
2022/03/27 08:11:42;;;;;;;31.02;6.10;;;18.50;99.90;;;;;;5090996;28;20059;-49
2022/03/27 08:14:10;;;;;;;29.95;7.32;;;17.00;99.90;;;;;;5091373;28;20043;-50
2022/03/27 08:16:37;;;;;;;27.27;6.38;;;16.80;99.90;;;;;;5090534;28;20456;-49
2022/03/27 08:19:03;;;;;;;32.83;7.32;;;18.30;99.90;;;;;;5090880;28;20705;-49
2022/03/27 08:21:31;;;;;;;31.70;6.85;;;16.00;99.90;;;;;;5090679;28;20123;-50
2022/03/27 08:23:56;;;;;;;30.63;7.43;;;16.00;99.90;;;;;;5091619;28;20615;-49
2022/03/27 08:29:07;;;;;;;33.08;6.90;;;15.80;99.90;;;;;;5075023;28;20080;-52
2022/03/27 08:31:33;;;;;;;28.52;6.32;;;16.50;99.90;;;;;;5090887;28;20035;-50
2022/03/27 08:33:59;;;;;;;35.30;6.88;;;15.90;99.90;;;;;;5090456;28;20092;-51
2022/03/27 08:36:26;;;;;;;37.38;8.40;;;14.60;99.90;;;;;;5090090;28;20043;-50
2022/03/27 08:38:52;;;;;;;27.60;6.68;;;14.30;99.90;;;;;;5071751;28;20561;-48
2022/03/27 08:41:21;;;;;;;28.40;7.45;;;14.40;99.90;;;;;;5090251;28;20039;-51
2022/03/27 08:43:49;;;;;;;24.80;5.97;;;14.10;99.90;;;;;;5089838;28;20641;-51
2022/03/27 08:46:16;;;;;;;29.23;6.57;;;14.10;99.90;;;;;;5087017;28;20047;-49
2022/03/27 08:48:48;;;;;;;35.17;6.53;;;14.20;99.90;;;;;;5090324;28;20093;-48
2022/03/27 08:51:34;;;;;;;32.03;7.28;;;14.30;99.90;;;;;;5092423;28;20078;-48
2022/03/27 08:54:04;;;;;;;25.60;6.53;;;14.10;99.90;;;;;;5091556;28;20054;-53
2022/03/27 08:56:32;;;;;;;33.33;6.65;;;14.00;99.90;;;;;;5089346;28;20038;-54
2022/03/27 08:59:05;;;;;;;30.92;6.03;;;13.70;99.90;;;;;;5072706;28;20056;-48
2022/03/27 09:01:32;;;;;;;30.33;6.65;;;13.40;99.90;;;;;;5091386;28;20100;-48
2022/03/27 09:03:58;;;;;;;37.97;7.00;;;13.10;99.90;;;;;;5091671;28;20058;-52
2022/03/27 09:06:25;;;;;;;36.08;7.78;;;15.00;99.90;;;;;;5089462;28;20031;-48
2022/03/27 09:08:51;;;;;;;35.47;6.93;;;10.50;99.90;;;;;;5089901;28;20043;-53
2022/03/27 09:11:18;;;;;;;38.15;7.93;;;12.50;99.90;;;;;;5068394;28;20040;-47
2022/03/27 09:13:47;;;;;;;37.42;6.70;;;12.50;99.90;;;;;;5091470;28;20055;-50
2022/03/27 09:16:16;;;;;;;29.35;6.40;;;12.40;99.90;;;;;;5091521;28;20043;-53
2022/03/27 09:18:55;;;;;;;32.70;7.22;;;12.70;99.90;;;;;;5089594;28;20468;-51
2022/03/27 09:21:22;;;;;;;32.88;7.38;;;13.10;99.90;;;;;;5092100;28;20075;-50
2022/03/27 09:23:56;;;;;;;33.22;6.35;;;13.70;99.90;;;;;;5091600;28;20039;-53
2022/03/27 09:26:22;;;;;;;36.50;7.32;;;16.20;99.90;;;;;;5090275;28;20055;-52
2022/03/27 09:28:53;;;;;;;34.92;7.40;;;14.10;99.90;;;;;;5090596;28;20024;-53
2022/03/27 09:31:27;;;;;;;29.10;6.70;;;14.40;99.90;;;;;;5090866;28;20036;-50
2022/03/27 09:33:59;;;;;;;31.75;6.28;;;14.90;99.90;;;;;;5055218;28;20112;-49
2022/03/27 09:36:27;;;;;;;;;;;15.20;99.90;;;;;;5092254;28;20046;-49
2022/03/27 09:39:05;;;;;;;38.80;8.30;;;17.10;99.90;;;;;;5091218;28;20590;-51
2022/03/27 09:41:49;;;;;;;33.83;8.15;;;15.60;99.90;;;;;;5094496;28;20466;-54
2022/03/27 09:44:17;;;;;;;29.63;6.93;;;16.00;99.90;;;;;;5094212;28;21101;-52
2022/03/27 09:46:50;;;;;;;33.15;6.40;;;15.60;99.90;;;;;;5095286;28;20512;-51
2022/03/27 09:49:17;;;;;;;29.17;5.82;;;18.20;99.90;;;;;;5094260;28;20078;-48
2022/03/27 09:52:19;;;;;;;28.83;6.38;;;16.20;99.90;;;;;;5094508;28;20435;-54
2022/03/27 09:54:59;;;;;;;28.47;6.67;;;15.70;99.90;;;;;;4992736;28;20089;-49
2022/03/27 09:57:30;;;;;;;25.70;5.53;;;14.60;99.90;;;;;;4990263;28;20112;-51
2022/03/27 09:59:58;;;;;;;24.27;5.75;;;14.20;99.90;;;;;;4992176;28;20060;-50
2022/03/27 10:02:30;;;;;;;34.58;6.25;;;13.70;99.90;;;;;;4992066;28;20045;-51
2022/03/27 10:04:58;;;;;;;28.40;6.38;;;13.70;99.90;;;;;;4993382;28;20104;-49
2022/03/27 10:07:25;;;;;;;30.92;6.85;;;16.20;99.90;;;;;;4992003;28;20042;-52
2022/03/27 10:09:55;;;;;;;31.02;6.05;;;15.50;99.90;;;;;;4992264;28;20041;-51
2022/03/27 10:12:33;;;;;;;30.35;5.63;;;15.40;99.90;;;;;;4991819;28;20140;-53
2022/03/27 10:15:03;;;;;;;25.67;5.57;;;14.40;99.90;;;;;;4980694;28;20132;-53
2022/03/27 10:17:32;;;;;;;27.33;5.53;;;14.20;99.90;;;;;;4993315;28;20042;-54
2022/03/27 10:20:08;;;;;;;28.73;6.63;;;16.20;99.90;;;;;;4992074;28;20048;-52
2022/03/27 10:22:42;;;;;;;29.17;6.80;;;14.10;99.90;;;;;;4989273;28;20707;-49
2022/03/27 10:25:09;;;;;;;29.60;6.20;;;14.00;99.90;;;;;;4990600;28;20049;-53
2022/03/27 10:27:39;;;;;;;28.88;5.95;;;13.90;99.90;;;;;;4990259;28;20050;-52
2022/03/27 10:30:07;;;;;;;29.60;6.03;;;13.30;99.90;;;;;;4990892;28;20108;-53
2022/03/27 10:32:34;;;;;;;33.97;6.25;;;13.60;99.90;;;;;;5090418;28;20059;-53
2022/03/27 10:35:55;;;;;;;28.30;5.70;;;15.90;99.90;;;;;;5093436;28;20578;-54
2022/03/27 10:38:45;;;;;;;30.52;5.40;;;14.00;99.90;;;;;;5008493;28;20514;-51
2022/03/27 10:41:21;;;;;;;28.45;6.80;;;13.90;99.90;;;;;;5010198;28;21771;-54
2022/03/27 10:44:26;;;;;;;24.77;5.93;;;15.60;99.90;;;;;;5010078;28;20494;-52
2022/03/27 10:47:19;;;;;;;26.95;6.15;;;13.70;99.90;;;;;;4956833;28;20051;-53
2022/03/27 10:50:06;;;;;;;31.00;5.22;;;13.90;99.90;;;;;;4952953;28;21053;-54
2022/03/27 10:52:34;;;;;;;21.13;4.95;;;14.20;99.90;;;;;;4951432;28;20046;-53
2022/03/27 10:55:11;;;;;;;29.35;5.50;;;14.30;99.90;;;;;;4954137;28;20042;-50
2022/03/27 10:57:38;;;;;;;19.02;4.53;;;14.40;99.90;;;;;;4953917;28;20116;-52
2022/03/27 11:00:06;;;;;;;27.27;5.75;;;14.50;99.90;;;;;;4951433;28;20054;-54
2022/03/27 11:02:51;;;;;;;23.67;4.40;;;14.30;99.90;;;;;;4952643;28;20097;-51
2022/03/27 11:05:37;;;;;;;14.93;3.08;;;14.30;99.90;;;;;;4951694;28;20055;-49
2022/03/27 11:08:18;;;;;;;30.85;4.38;;;14.90;99.90;;;;;;4932256;28;20078;-54
2022/03/27 11:10:49;;;;;;;21.35;3.90;;;14.70;99.90;;;;;;4934747;28;20094;-50
2022/03/27 11:13:33;;;;;;;19.33;4.10;;;14.10;99.90;;;;;;4999178;28;20053;-52
2022/03/27 11:16:15;;;;;;;23.85;4.35;;;14.10;99.90;;;;;;5009228;28;20049;-54
2022/03/27 11:18:46;;;;;;;29.35;3.80;;;14.30;99.90;;;;;;4992327;28;20049;-52
2022/03/27 11:21:13;;;;;;;21.23;3.90;;;14.20;99.90;;;;;;5007937;28;20049;-54
2022/03/27 11:23:41;;;;;;;15.77;3.85;;;14.10;99.90;;;;;;5022296;28;20476;-51
2022/03/27 11:26:19;;;;;;;12.25;3.00;;;14.20;99.90;;;;;;5048943;28;20064;-52
2022/03/27 11:29:04;;;;;;;20.42;3.67;;;16.40;99.90;;;;;;5047368;28;20044;-51
2022/03/27 11:31:37;;;;;;;14.85;3.35;;;14.20;99.90;;;;;;5047512;28;20530;-53
2022/03/27 11:34:26;;;;;;;16.15;3.28;;;14.30;99.90;;;;;;5029972;28;20184;-54
2022/03/27 11:37:11;;;;;;;17.05;3.88;;;14.30;99.90;;;;;;4975079;28;20099;-54
2022/03/27 11:39:40;;;;;;;17.85;4.15;;;14.10;99.90;;;;;;4990568;28;20046;-51
2022/03/27 11:42:32;;;;;;;19.75;3.72;;;14.20;99.90;;;;;;4994007;28;20104;-52
2022/03/27 11:45:13;;;;;;;17.42;3.70;;;12.60;99.90;;;;;;5006391;28;20048;-54
2022/03/27 11:47:42;;;;;;;16.38;3.08;;;14.90;99.90;;;;;;5027583;28;20088;-52
2022/03/27 11:50:09;;;;;;;14.57;3.08;;;14.70;99.90;;;;;;5027249;28;20043;-52
2022/03/27 11:52:35;;;;;;;15.60;2.88;;;16.00;99.90;;;;;;5024735;28;20885;-53
2022/03/27 11:55:06;;;;;;;9.77;2.53;;;15.30;99.90;;;;;;5028701;28;20052;-50
2022/03/27 11:57:53;;;;;;;15.80;2.97;;;14.80;99.90;;;;;;5026253;28;20049;-52
2022/03/27 12:00:37;;;;;;;11.55;2.70;;;14.80;99.90;;;;;;5023578;28;20148;-53
2022/03/27 12:03:13;;;;;;;17.75;3.35;;;14.80;99.90;;;;;;5023913;28;20071;-50
2022/03/27 12:05:39;;;;;;;17.15;3.30;;;14.80;99.90;;;;;;5023573;28;20235;-50
2022/03/27 12:08:07;;;;;;;17.55;3.78;;;15.30;99.90;;;;;;5025653;28;20052;-51
2022/03/27 12:10:46;;;;;;;17.30;2.90;;;14.70;99.90;;;;;;5025250;28;20052;-52
2022/03/27 12:13:14;;;;;;;14.65;3.25;;;14.80;99.90;;;;;;5030856;28;20133;-55
2022/03/27 12:15:54;;;;;;;17.17;3.80;;;14.90;99.90;;;;;;5071157;28;20224;-54
2022/03/27 12:18:30;;;;;;;16.55;3.35;;;14.90;99.90;;;;;;5072296;28;20190;-53
2022/03/27 12:20:58;;;;;;;19.55;3.78;;;14.60;99.90;;;;;;5070169;28;20511;-54
2022/03/27 12:23:30;;;;;;;16.30;2.92;;;14.50;99.90;;;;;;5069501;28;20299;-50
2022/03/27 12:25:59;;;;;;;16.52;3.15;;;14.60;99.90;;;;;;5072394;28;20583;-53
2022/03/27 12:31:31;;;;;;;20.42;4.50;;;14.70;99.90;;;;;;5003013;28;20045;-54
2022/03/27 12:33:57;;;;;;;13.57;2.97;;;16.90;99.90;;;;;;5004275;28;20073;-53
2022/03/27 12:36:23;;;;;;;13.10;2.90;;;14.70;99.90;;;;;;5002311;28;20187;-54
2022/03/27 12:38:48;;;;;;;21.23;3.53;;;15.30;99.90;;;;;;5004019;28;20072;-52
2022/03/27 12:41:35;;;;;;;15.43;3.03;;;16.20;99.90;;;;;;5004419;28;20052;-52
2022/03/27 12:44:03;;;;;;;19.33;3.60;;;14.80;99.90;;;;;;5003896;28;20049;-53
2022/03/27 12:46:30;;;;;;;16.05;3.65;;;14.90;99.90;;;;;;5004902;28;20033;-54
2022/03/27 12:49:03;;;;;;;17.85;4.22;;;14.70;99.90;;;;;;5006656;28;20053;-52
2022/03/27 12:51:29;;;;;;;15.63;3.45;;;14.70;99.90;;;;;;5004553;28;20140;-53
2022/03/27 12:54:07;;;;;;;16.70;3.55;;;14.80;99.90;;;;;;5004732;28;20124;-50
2022/03/27 12:56:34;;;;;;;16.35;3.63;;;14.70;99.90;;;;;;5006003;28;20050;-53
2022/03/27 12:59:21;;;;;;;21.80;3.78;;;14.60;99.90;;;;;;5006100;28;20038;-52
2022/03/27 13:01:50;;;;;;;20.92;4.22;;;14.40;99.90;;;;;;5028145;28;20054;-54
2022/03/27 13:04:15;;;;;;;21.92;3.95;;;16.80;99.90;;;;;;5072091;28;20046;-54
2022/03/27 13:06:51;;;;;;;20.33;4.20;;;16.70;99.90;;;;;;5072350;28;20040;-51
2022/03/27 13:09:22;;;;;;;17.77;4.05;;;14.70;99.90;;;;;;5072423;28;20028;-53
2022/03/27 13:11:50;;;;;;;22.05;4.18;;;14.60;99.90;;;;;;5072154;28;20028;-50
2022/03/27 13:14:16;;;;;;;18.75;4.13;;;14.50;99.90;;;;;;5053042;28;20049;-54
2022/03/27 13:16:53;;;;;;;21.95;3.83;;;14.60;99.90;;;;;;5052766;28;20055;-54
2022/03/27 13:19:23;;;;;;;22.15;4.22;;;15.20;99.90;;;;;;5054422;28;20440;-54
2022/03/27 13:21:59;;;;;;;22.77;4.95;;;14.50;99.90;;;;;;5053543;28;20040;-51
2022/03/27 13:24:26;;;;;;;21.67;4.30;;;14.50;99.90;;;;;;5054663;28;20036;-51
2022/03/27 13:26:55;;;;;;;20.00;4.20;;;14.30;99.90;;;;;;5055961;28;20040;-53
2022/03/27 13:29:23;;;;;;;24.90;4.00;;;16.50;99.90;;;;;;5055878;28;20558;-52
2022/03/27 13:31:50;;;;;;;22.40;3.90;;;14.20;99.90;;;;;;5055560;28;20038;-53